sensor_id;sensor_type;location;lat;lon;timestamp;P1;durP1;ratioP1;P2;durP2;ratioP2
77678;SDS011;66835;49.478;10.724;2023-02-28T00:00:00;0.85;;;0.80;;
77678;SDS011;66835;49.478;10.724;2023-02-28T00:02:25;0.77;;;0.77;;
77678;SDS011;66835;49.478;10.724;2023-02-28T00:04:51;1.20;;;1.07;;
77678;SDS011;66835;49.478;10.724;2023-02-28T00:07:25;0.80;;;0.80;;
77678;SDS011;66835;49.478;10.724;2023-02-28T00:09:52;1.27;;;0.80;;
77678;SDS011;66835;49.478;10.724;2023-02-28T00:12:18;1.60;;;1.15;;
77678;SDS011;66835;49.478;10.724;2023-02-28T00:14:43;1.33;;;0.83;;
77678;SDS011;66835;49.478;10.724;2023-02-28T00:17:08;0.75;;;0.75;;
77678;SDS011;66835;49.478;10.724;2023-02-28T00:19:34;0.80;;;0.80;;
77678;SDS011;66835;49.478;10.724;2023-02-28T00:21:59;1.10;;;0.85;;
77678;SDS011;66835;49.478;10.724;2023-02-28T00:24:25;0.80;;;0.80;;
77678;SDS011;66835;49.478;10.724;2023-02-28T00:26:51;1.08;;;0.88;;
77678;SDS011;66835;49.478;10.724;2023-02-28T00:29:17;1.13;;;0.88;;
77678;SDS011;66835;49.478;10.724;2023-02-28T00:31:42;1.33;;;1.08;;
77678;SDS011;66835;49.478;10.724;2023-02-28T00:34:07;1.57;;;1.03;;
77678;SDS011;66835;49.478;10.724;2023-02-28T00:36:33;1.37;;;1.23;;
77678;SDS011;66835;49.478;10.724;2023-02-28T00:38:58;1.17;;;0.80;;
77678;SDS011;66835;49.478;10.724;2023-02-28T00:41:24;0.82;;;0.80;;
77678;SDS011;66835;49.478;10.724;2023-02-28T00:43:50;1.20;;;0.95;;
77678;SDS011;66835;49.478;10.724;2023-02-28T00:46:16;0.90;;;0.80;;
77678;SDS011;66835;49.478;10.724;2023-02-28T00:48:41;1.33;;;0.88;;
77678;SDS011;66835;49.478;10.724;2023-02-28T00:51:07;0.60;;;0.60;;
77678;SDS011;66835;49.478;10.724;2023-02-28T00:53:32;1.23;;;0.80;;
77678;SDS011;66835;49.478;10.724;2023-02-28T00:55:57;1.23;;;0.82;;
77678;SDS011;66835;49.478;10.724;2023-02-28T00:58:23;0.60;;;0.60;;
77678;SDS011;66835;49.478;10.724;2023-02-28T01:00:50;0.80;;;0.65;;
77678;SDS011;66835;49.478;10.724;2023-02-28T01:03:16;1.00;;;0.90;;
77678;SDS011;66835;49.478;10.724;2023-02-28T01:05:42;1.00;;;0.90;;
77678;SDS011;66835;49.478;10.724;2023-02-28T01:08:07;0.70;;;0.70;;
77678;SDS011;66835;49.478;10.724;2023-02-28T01:10:33;0.98;;;0.80;;
77678;SDS011;66835;49.478;10.724;2023-02-28T01:12:58;0.98;;;0.93;;
77678;SDS011;66835;49.478;10.724;2023-02-28T01:15:24;1.02;;;0.75;;
77678;SDS011;66835;49.478;10.724;2023-02-28T01:17:51;0.77;;;0.73;;
77678;SDS011;66835;49.478;10.724;2023-02-28T01:20:16;1.02;;;0.70;;
77678;SDS011;66835;49.478;10.724;2023-02-28T01:22:42;2.15;;;0.82;;
77678;SDS011;66835;49.478;10.724;2023-02-28T01:25:07;1.00;;;0.93;;
77678;SDS011;66835;49.478;10.724;2023-02-28T01:27:33;1.13;;;0.70;;
77678;SDS011;66835;49.478;10.724;2023-02-28T01:29:58;0.82;;;0.82;;
77678;SDS011;66835;49.478;10.724;2023-02-28T01:32:24;1.08;;;0.63;;
77678;SDS011;66835;49.478;10.724;2023-02-28T01:34:51;1.15;;;0.80;;
77678;SDS011;66835;49.478;10.724;2023-02-28T01:37:16;1.25;;;0.90;;
77678;SDS011;66835;49.478;10.724;2023-02-28T01:39:41;1.37;;;0.90;;
77678;SDS011;66835;49.478;10.724;2023-02-28T01:42:08;0.70;;;0.70;;
77678;SDS011;66835;49.478;10.724;2023-02-28T01:47:31;1.27;;;0.98;;
77678;SDS011;66835;49.478;10.724;2023-02-28T01:49:59;0.85;;;0.80;;
77678;SDS011;66835;49.478;10.724;2023-02-28T01:52:26;0.85;;;0.60;;
77678;SDS011;66835;49.478;10.724;2023-02-28T01:54:53;1.02;;;0.90;;
77678;SDS011;66835;49.478;10.724;2023-02-28T01:57:20;1.02;;;0.80;;
77678;SDS011;66835;49.478;10.724;2023-02-28T01:59:47;1.38;;;0.98;;
77678;SDS011;66835;49.478;10.724;2023-02-28T02:02:15;1.17;;;1.05;;
77678;SDS011;66835;49.478;10.724;2023-02-28T02:04:43;1.20;;;0.90;;
77678;SDS011;66835;49.478;10.724;2023-02-28T02:07:14;1.30;;;0.90;;
77678;SDS011;66835;49.478;10.724;2023-02-28T02:09:40;1.20;;;1.00;;
77678;SDS011;66835;49.478;10.724;2023-02-28T02:12:07;0.57;;;0.55;;
77678;SDS011;66835;49.478;10.724;2023-02-28T02:14:44;1.30;;;0.90;;
77678;SDS011;66835;49.478;10.724;2023-02-28T02:17:20;1.00;;;0.77;;
77678;SDS011;66835;49.478;10.724;2023-02-28T02:20:06;0.98;;;0.90;;
77678;SDS011;66835;49.478;10.724;2023-02-28T02:23:09;1.02;;;0.93;;
77678;SDS011;66835;49.478;10.724;2023-02-28T02:25:49;1.23;;;0.90;;
77678;SDS011;66835;49.478;10.724;2023-02-28T02:31:06;1.10;;;0.90;;
77678;SDS011;66835;49.478;10.724;2023-02-28T02:34:02;1.08;;;0.98;;
77678;SDS011;66835;49.478;10.724;2023-02-28T02:36:35;1.02;;;0.90;;
77678;SDS011;66835;49.478;10.724;2023-02-28T02:39:04;0.80;;;0.80;;
77678;SDS011;66835;49.478;10.724;2023-02-28T02:41:33;0.73;;;0.70;;
77678;SDS011;66835;49.478;10.724;2023-02-28T02:44:02;1.45;;;1.00;;
77678;SDS011;66835;49.478;10.724;2023-02-28T02:46:31;0.70;;;0.70;;
77678;SDS011;66835;49.478;10.724;2023-02-28T02:48:59;1.65;;;0.90;;
77678;SDS011;66835;49.478;10.724;2023-02-28T02:51:27;0.90;;;0.70;;
77678;SDS011;66835;49.478;10.724;2023-02-28T02:53:57;1.55;;;1.00;;
77678;SDS011;66835;49.478;10.724;2023-02-28T02:56:28;1.05;;;0.80;;
77678;SDS011;66835;49.478;10.724;2023-02-28T02:58:54;1.35;;;1.10;;
77678;SDS011;66835;49.478;10.724;2023-02-28T03:01:23;1.00;;;0.73;;
77678;SDS011;66835;49.478;10.724;2023-02-28T03:06:20;1.20;;;0.82;;
77678;SDS011;66835;49.478;10.724;2023-02-28T03:08:46;1.20;;;0.90;;
77678;SDS011;66835;49.478;10.724;2023-02-28T03:11:11;1.23;;;0.90;;
77678;SDS011;66835;49.478;10.724;2023-02-28T03:13:46;1.13;;;0.90;;
77678;SDS011;66835;49.478;10.724;2023-02-28T03:16:32;1.23;;;1.05;;
77678;SDS011;66835;49.478;10.724;2023-02-28T03:19:02;1.42;;;0.95;;
77678;SDS011;66835;49.478;10.724;2023-02-28T03:21:34;1.08;;;0.98;;
77678;SDS011;66835;49.478;10.724;2023-02-28T03:24:03;0.70;;;0.70;;
77678;SDS011;66835;49.478;10.724;2023-02-28T03:26:31;0.82;;;0.70;;
77678;SDS011;66835;49.478;10.724;2023-02-28T03:29:00;1.02;;;0.80;;
77678;SDS011;66835;49.478;10.724;2023-02-28T03:31:30;1.17;;;1.00;;
77678;SDS011;66835;49.478;10.724;2023-02-28T03:33:59;0.85;;;0.65;;
77678;SDS011;66835;49.478;10.724;2023-02-28T03:36:27;1.00;;;0.85;;
77678;SDS011;66835;49.478;10.724;2023-02-28T03:38:56;1.30;;;1.02;;
77678;SDS011;66835;49.478;10.724;2023-02-28T03:41:28;1.60;;;1.10;;
77678;SDS011;66835;49.478;10.724;2023-02-28T03:43:56;1.48;;;0.98;;
77678;SDS011;66835;49.478;10.724;2023-02-28T03:46:23;1.63;;;1.30;;
77678;SDS011;66835;49.478;10.724;2023-02-28T03:48:51;0.95;;;0.85;;
77678;SDS011;66835;49.478;10.724;2023-02-28T03:51:18;1.17;;;1.05;;
77678;SDS011;66835;49.478;10.724;2023-02-28T03:53:47;1.10;;;0.90;;
77678;SDS011;66835;49.478;10.724;2023-02-28T03:56:18;1.58;;;1.10;;
77678;SDS011;66835;49.478;10.724;2023-02-28T03:58:47;1.10;;;0.95;;
77678;SDS011;66835;49.478;10.724;2023-02-28T04:01:15;1.30;;;0.90;;
77678;SDS011;66835;49.478;10.724;2023-02-28T04:03:43;1.60;;;1.00;;
77678;SDS011;66835;49.478;10.724;2023-02-28T04:06:13;1.17;;;1.00;;
77678;SDS011;66835;49.478;10.724;2023-02-28T04:08:40;1.23;;;1.00;;
77678;SDS011;66835;49.478;10.724;2023-02-28T04:11:06;1.47;;;1.10;;
77678;SDS011;66835;49.478;10.724;2023-02-28T04:13:38;1.25;;;1.00;;
77678;SDS011;66835;49.478;10.724;2023-02-28T04:16:06;1.20;;;0.90;;
77678;SDS011;66835;49.478;10.724;2023-02-28T04:18:36;1.35;;;1.00;;
77678;SDS011;66835;49.478;10.724;2023-02-28T04:21:02;0.90;;;0.70;;
77678;SDS011;66835;49.478;10.724;2023-02-28T04:23:28;1.33;;;1.00;;
77678;SDS011;66835;49.478;10.724;2023-02-28T04:25:54;1.50;;;1.00;;
77678;SDS011;66835;49.478;10.724;2023-02-28T04:28:19;0.93;;;0.70;;
77678;SDS011;66835;49.478;10.724;2023-02-28T04:30:46;1.50;;;1.02;;
77678;SDS011;66835;49.478;10.724;2023-02-28T04:33:12;1.33;;;1.02;;
77678;SDS011;66835;49.478;10.724;2023-02-28T04:35:37;1.00;;;0.90;;
77678;SDS011;66835;49.478;10.724;2023-02-28T04:38:02;1.63;;;0.90;;
77678;SDS011;66835;49.478;10.724;2023-02-28T04:40:28;1.33;;;0.80;;
77678;SDS011;66835;49.478;10.724;2023-02-28T04:42:53;1.33;;;1.00;;
77678;SDS011;66835;49.478;10.724;2023-02-28T04:45:19;1.25;;;0.90;;
77678;SDS011;66835;49.478;10.724;2023-02-28T04:47:46;1.60;;;1.10;;
77678;SDS011;66835;49.478;10.724;2023-02-28T04:50:11;2.08;;;1.00;;
77678;SDS011;66835;49.478;10.724;2023-02-28T04:52:36;1.75;;;1.23;;
77678;SDS011;66835;49.478;10.724;2023-02-28T04:55:02;0.75;;;0.70;;
77678;SDS011;66835;49.478;10.724;2023-02-28T04:57:28;1.67;;;1.10;;
77678;SDS011;66835;49.478;10.724;2023-02-28T04:59:53;1.75;;;1.13;;
77678;SDS011;66835;49.478;10.724;2023-02-28T05:02:18;1.27;;;1.00;;
77678;SDS011;66835;49.478;10.724;2023-02-28T05:04:47;1.52;;;1.08;;
77678;SDS011;66835;49.478;10.724;2023-02-28T05:07:12;1.20;;;0.90;;
77678;SDS011;66835;49.478;10.724;2023-02-28T05:09:38;1.00;;;0.80;;
77678;SDS011;66835;49.478;10.724;2023-02-28T05:12:03;1.33;;;0.90;;
77678;SDS011;66835;49.478;10.724;2023-02-28T05:14:29;1.55;;;1.45;;
77678;SDS011;66835;49.478;10.724;2023-02-28T05:16:54;1.63;;;1.10;;
77678;SDS011;66835;49.478;10.724;2023-02-28T05:19:19;0.80;;;0.80;;
77678;SDS011;66835;49.478;10.724;2023-02-28T05:21:51;1.60;;;1.10;;
77678;SDS011;66835;49.478;10.724;2023-02-28T05:24:18;1.27;;;1.00;;
77678;SDS011;66835;49.478;10.724;2023-02-28T05:26:50;1.38;;;1.00;;
77678;SDS011;66835;49.478;10.724;2023-02-28T05:29:16;1.63;;;1.20;;
77678;SDS011;66835;49.478;10.724;2023-02-28T05:31:42;1.13;;;0.95;;
77678;SDS011;66835;49.478;10.724;2023-02-28T05:34:07;1.00;;;0.90;;
77678;SDS011;66835;49.478;10.724;2023-02-28T05:36:36;1.55;;;1.00;;
77678;SDS011;66835;49.478;10.724;2023-02-28T05:39:04;1.58;;;1.10;;
77678;SDS011;66835;49.478;10.724;2023-02-28T05:41:30;1.88;;;1.20;;
77678;SDS011;66835;49.478;10.724;2023-02-28T05:43:57;1.60;;;1.07;;
77678;SDS011;66835;49.478;10.724;2023-02-28T05:46:22;1.58;;;1.10;;
77678;SDS011;66835;49.478;10.724;2023-02-28T05:48:48;2.20;;;1.25;;
77678;SDS011;66835;49.478;10.724;2023-02-28T05:51:13;1.80;;;1.00;;
77678;SDS011;66835;49.478;10.724;2023-02-28T05:53:39;1.63;;;1.08;;
77678;SDS011;66835;49.478;10.724;2023-02-28T05:56:06;1.30;;;0.90;;
77678;SDS011;66835;49.478;10.724;2023-02-28T05:58:31;1.40;;;1.00;;
77678;SDS011;66835;49.478;10.724;2023-02-28T06:00:57;1.50;;;1.20;;
77678;SDS011;66835;49.478;10.724;2023-02-28T06:03:23;1.33;;;1.00;;
77678;SDS011;66835;49.478;10.724;2023-02-28T06:05:49;1.15;;;0.90;;
77678;SDS011;66835;49.478;10.724;2023-02-28T06:08:15;1.60;;;1.08;;
77678;SDS011;66835;49.478;10.724;2023-02-28T06:10:40;1.52;;;1.05;;
77678;SDS011;66835;49.478;10.724;2023-02-28T06:13:07;1.63;;;1.08;;
77678;SDS011;66835;49.478;10.724;2023-02-28T06:15:33;2.22;;;1.50;;
77678;SDS011;66835;49.478;10.724;2023-02-28T06:17:58;1.80;;;1.30;;
77678;SDS011;66835;49.478;10.724;2023-02-28T06:20:25;1.35;;;1.17;;
77678;SDS011;66835;49.478;10.724;2023-02-28T06:22:54;1.67;;;1.10;;
77678;SDS011;66835;49.478;10.724;2023-02-28T06:25:21;1.52;;;1.27;;
77678;SDS011;66835;49.478;10.724;2023-02-28T06:27:46;1.55;;;1.17;;
77678;SDS011;66835;49.478;10.724;2023-02-28T06:30:14;1.63;;;1.20;;
77678;SDS011;66835;49.478;10.724;2023-02-28T06:32:40;1.90;;;1.20;;
77678;SDS011;66835;49.478;10.724;2023-02-28T06:35:05;1.53;;;1.03;;
77678;SDS011;66835;49.478;10.724;2023-02-28T06:37:31;1.58;;;1.13;;
77678;SDS011;66835;49.478;10.724;2023-02-28T06:39:57;1.58;;;1.20;;
77678;SDS011;66835;49.478;10.724;2023-02-28T06:42:22;1.25;;;0.98;;
77678;SDS011;66835;49.478;10.724;2023-02-28T06:47:20;1.80;;;1.23;;
77678;SDS011;66835;49.478;10.724;2023-02-28T06:49:45;1.50;;;1.15;;
77678;SDS011;66835;49.478;10.724;2023-02-28T06:52:11;1.75;;;1.15;;
77678;SDS011;66835;49.478;10.724;2023-02-28T06:54:36;1.98;;;1.30;;
77678;SDS011;66835;49.478;10.724;2023-02-28T06:57:02;1.55;;;1.10;;
77678;SDS011;66835;49.478;10.724;2023-02-28T06:59:28;1.60;;;1.00;;
77678;SDS011;66835;49.478;10.724;2023-02-28T07:01:53;1.85;;;1.00;;
77678;SDS011;66835;49.478;10.724;2023-02-28T07:04:21;1.50;;;0.98;;
77678;SDS011;66835;49.478;10.724;2023-02-28T07:06:47;1.45;;;0.90;;
77678;SDS011;66835;49.478;10.724;2023-02-28T07:09:12;2.20;;;1.30;;
77678;SDS011;66835;49.478;10.724;2023-02-28T07:11:38;1.73;;;1.13;;
77678;SDS011;66835;49.478;10.724;2023-02-28T07:14:04;1.20;;;1.00;;
77678;SDS011;66835;49.478;10.724;2023-02-28T07:16:30;1.57;;;1.10;;
77678;SDS011;66835;49.478;10.724;2023-02-28T07:18:55;1.75;;;1.10;;
77678;SDS011;66835;49.478;10.724;2023-02-28T07:21:22;1.55;;;1.10;;
77678;SDS011;66835;49.478;10.724;2023-02-28T07:23:48;1.65;;;1.10;;
77678;SDS011;66835;49.478;10.724;2023-02-28T07:26:14;2.20;;;1.30;;
77678;SDS011;66835;49.478;10.724;2023-02-28T07:28:42;1.70;;;1.20;;
77678;SDS011;66835;49.478;10.724;2023-02-28T07:31:07;1.83;;;1.08;;
77678;SDS011;66835;49.478;10.724;2023-02-28T07:33:33;2.38;;;1.65;;
77678;SDS011;66835;49.478;10.724;2023-02-28T07:36:02;2.45;;;1.13;;
77678;SDS011;66835;49.478;10.724;2023-02-28T07:38:30;1.77;;;1.20;;
77678;SDS011;66835;49.478;10.724;2023-02-28T07:40:56;1.80;;;1.25;;
77678;SDS011;66835;49.478;10.724;2023-02-28T07:43:21;2.03;;;1.27;;
77678;SDS011;66835;49.478;10.724;2023-02-28T07:45:46;2.00;;;1.70;;
77678;SDS011;66835;49.478;10.724;2023-02-28T07:48:12;1.90;;;1.15;;
77678;SDS011;66835;49.478;10.724;2023-02-28T07:50:37;2.03;;;1.33;;
77678;SDS011;66835;49.478;10.724;2023-02-28T07:53:03;1.67;;;1.20;;
77678;SDS011;66835;49.478;10.724;2023-02-28T07:55:30;2.22;;;1.33;;
77678;SDS011;66835;49.478;10.724;2023-02-28T07:57:56;1.90;;;1.23;;
77678;SDS011;66835;49.478;10.724;2023-02-28T08:00:22;1.88;;;1.10;;
77678;SDS011;66835;49.478;10.724;2023-02-28T08:02:48;2.60;;;1.15;;
77678;SDS011;66835;49.478;10.724;2023-02-28T08:05:14;1.58;;;1.13;;
77678;SDS011;66835;49.478;10.724;2023-02-28T08:07:39;1.35;;;0.93;;
77678;SDS011;66835;49.478;10.724;2023-02-28T08:10:05;2.08;;;1.30;;
77678;SDS011;66835;49.478;10.724;2023-02-28T08:12:33;1.70;;;1.10;;
77678;SDS011;66835;49.478;10.724;2023-02-28T08:14:58;1.92;;;1.30;;
77678;SDS011;66835;49.478;10.724;2023-02-28T08:17:24;1.60;;;1.10;;
77678;SDS011;66835;49.478;10.724;2023-02-28T08:19:49;1.33;;;1.10;;
77678;SDS011;66835;49.478;10.724;2023-02-28T08:22:15;1.50;;;1.10;;
77678;SDS011;66835;49.478;10.724;2023-02-28T08:24:40;1.50;;;1.00;;
77678;SDS011;66835;49.478;10.724;2023-02-28T08:27:06;2.35;;;1.30;;
77678;SDS011;66835;49.478;10.724;2023-02-28T08:29:33;2.00;;;1.30;;
77678;SDS011;66835;49.478;10.724;2023-02-28T08:31:58;1.80;;;1.25;;
77678;SDS011;66835;49.478;10.724;2023-02-28T08:34:24;1.73;;;1.17;;
77678;SDS011;66835;49.478;10.724;2023-02-28T08:36:49;1.88;;;1.20;;
77678;SDS011;66835;49.478;10.724;2023-02-28T08:39:15;1.92;;;1.10;;
77678;SDS011;66835;49.478;10.724;2023-02-28T08:41:41;1.25;;;0.90;;
77678;SDS011;66835;49.478;10.724;2023-02-28T08:44:07;1.65;;;1.17;;
77678;SDS011;66835;49.478;10.724;2023-02-28T08:46:34;2.47;;;1.38;;
77678;SDS011;66835;49.478;10.724;2023-02-28T08:48:59;2.67;;;1.50;;
77678;SDS011;66835;49.478;10.724;2023-02-28T08:51:26;2.47;;;1.40;;
77678;SDS011;66835;49.478;10.724;2023-02-28T08:53:52;1.65;;;1.08;;
77678;SDS011;66835;49.478;10.724;2023-02-28T08:56:18;1.80;;;1.20;;
77678;SDS011;66835;49.478;10.724;2023-02-28T08:58:44;1.92;;;1.17;;
77678;SDS011;66835;49.478;10.724;2023-02-28T09:01:11;1.38;;;0.93;;
77678;SDS011;66835;49.478;10.724;2023-02-28T09:03:38;1.83;;;1.20;;
77678;SDS011;66835;49.478;10.724;2023-02-28T09:06:05;1.70;;;1.10;;
77678;SDS011;66835;49.478;10.724;2023-02-28T09:08:31;2.20;;;1.30;;
77678;SDS011;66835;49.478;10.724;2023-02-28T09:10:57;1.50;;;1.10;;
77678;SDS011;66835;49.478;10.724;2023-02-28T09:13:23;1.83;;;1.10;;
77678;SDS011;66835;49.478;10.724;2023-02-28T09:15:49;1.80;;;1.23;;
77678;SDS011;66835;49.478;10.724;2023-02-28T09:18:14;1.20;;;0.98;;
77678;SDS011;66835;49.478;10.724;2023-02-28T09:20:42;1.75;;;1.08;;
77678;SDS011;66835;49.478;10.724;2023-02-28T09:23:07;1.73;;;1.00;;
77678;SDS011;66835;49.478;10.724;2023-02-28T09:25:33;1.55;;;1.00;;
77678;SDS011;66835;49.478;10.724;2023-02-28T09:27:59;1.90;;;1.30;;
77678;SDS011;66835;49.478;10.724;2023-02-28T09:30:24;1.80;;;1.17;;
77678;SDS011;66835;49.478;10.724;2023-02-28T09:32:50;1.45;;;1.02;;
77678;SDS011;66835;49.478;10.724;2023-02-28T09:35:19;1.15;;;0.90;;
77678;SDS011;66835;49.478;10.724;2023-02-28T09:37:47;1.13;;;0.85;;
77678;SDS011;66835;49.478;10.724;2023-02-28T09:40:15;1.10;;;0.80;;
77678;SDS011;66835;49.478;10.724;2023-02-28T09:42:46;1.65;;;1.10;;
77678;SDS011;66835;49.478;10.724;2023-02-28T09:45:13;1.58;;;1.10;;
77678;SDS011;66835;49.478;10.724;2023-02-28T09:47:44;2.13;;;1.25;;
77678;SDS011;66835;49.478;10.724;2023-02-28T09:50:12;2.08;;;1.30;;
77678;SDS011;66835;49.478;10.724;2023-02-28T09:52:46;1.38;;;1.00;;
77678;SDS011;66835;49.478;10.724;2023-02-28T09:55:18;1.55;;;1.10;;
77678;SDS011;66835;49.478;10.724;2023-02-28T09:57:47;1.27;;;1.00;;
77678;SDS011;66835;49.478;10.724;2023-02-28T10:00:17;2.15;;;1.13;;
77678;SDS011;66835;49.478;10.724;2023-02-28T10:05:33;2.25;;;1.38;;
77678;SDS011;66835;49.478;10.724;2023-02-28T10:08:05;1.08;;;0.90;;
77678;SDS011;66835;49.478;10.724;2023-02-28T10:10:36;1.30;;;0.90;;
77678;SDS011;66835;49.478;10.724;2023-02-28T10:13:04;1.63;;;1.10;;
77678;SDS011;66835;49.478;10.724;2023-02-28T10:15:32;1.48;;;1.05;;
77678;SDS011;66835;49.478;10.724;2023-02-28T10:18:01;1.50;;;0.93;;
77678;SDS011;66835;49.478;10.724;2023-02-28T10:20:28;1.63;;;0.98;;
77678;SDS011;66835;49.478;10.724;2023-02-28T10:23:02;1.75;;;1.17;;
77678;SDS011;66835;49.478;10.724;2023-02-28T10:25:33;1.42;;;0.93;;
77678;SDS011;66835;49.478;10.724;2023-02-28T10:28:01;1.13;;;0.80;;
77678;SDS011;66835;49.478;10.724;2023-02-28T10:30:30;1.77;;;1.00;;
77678;SDS011;66835;49.478;10.724;2023-02-28T10:32:56;1.40;;;0.98;;
77678;SDS011;66835;49.478;10.724;2023-02-28T10:35:23;1.85;;;1.10;;
77678;SDS011;66835;49.478;10.724;2023-02-28T10:37:50;1.63;;;0.93;;
77678;SDS011;66835;49.478;10.724;2023-02-28T10:40:29;1.00;;;0.85;;
77678;SDS011;66835;49.478;10.724;2023-02-28T10:42:57;1.52;;;1.00;;
77678;SDS011;66835;49.478;10.724;2023-02-28T10:45:23;1.23;;;0.80;;
77678;SDS011;66835;49.478;10.724;2023-02-28T10:47:51;1.15;;;0.90;;
77678;SDS011;66835;49.478;10.724;2023-02-28T10:50:28;1.60;;;0.90;;
77678;SDS011;66835;49.478;10.724;2023-02-28T10:52:57;1.30;;;0.90;;
77678;SDS011;66835;49.478;10.724;2023-02-28T10:55:34;1.63;;;1.00;;
77678;SDS011;66835;49.478;10.724;2023-02-28T10:58:00;0.95;;;0.75;;
77678;SDS011;66835;49.478;10.724;2023-02-28T11:00:25;1.33;;;0.90;;
77678;SDS011;66835;49.478;10.724;2023-02-28T11:02:57;1.20;;;0.88;;
77678;SDS011;66835;49.478;10.724;2023-02-28T11:05:24;1.45;;;0.90;;
77678;SDS011;66835;49.478;10.724;2023-02-28T11:07:51;1.70;;;1.13;;
77678;SDS011;66835;49.478;10.724;2023-02-28T11:10:17;1.25;;;0.88;;
77678;SDS011;66835;49.478;10.724;2023-02-28T11:12:46;1.33;;;0.93;;
77678;SDS011;66835;49.478;10.724;2023-02-28T11:15:18;1.02;;;0.80;;
77678;SDS011;66835;49.478;10.724;2023-02-28T11:17:52;1.70;;;1.00;;
77678;SDS011;66835;49.478;10.724;2023-02-28T11:20:20;1.02;;;0.90;;
77678;SDS011;66835;49.478;10.724;2023-02-28T11:22:48;1.27;;;0.90;;
77678;SDS011;66835;49.478;10.724;2023-02-28T11:25:18;1.50;;;1.00;;
77678;SDS011;66835;49.478;10.724;2023-02-28T11:27:49;1.20;;;0.80;;
77678;SDS011;66835;49.478;10.724;2023-02-28T11:30:30;1.27;;;0.98;;
77678;SDS011;66835;49.478;10.724;2023-02-28T11:32:59;1.83;;;1.00;;
77678;SDS011;66835;49.478;10.724;2023-02-28T11:35:27;1.58;;;0.90;;
77678;SDS011;66835;49.478;10.724;2023-02-28T11:37:55;1.45;;;1.00;;
77678;SDS011;66835;49.478;10.724;2023-02-28T11:40:23;1.50;;;0.93;;
77678;SDS011;66835;49.478;10.724;2023-02-28T11:43:04;1.23;;;0.90;;
77678;SDS011;66835;49.478;10.724;2023-02-28T11:45:47;1.50;;;0.82;;
77678;SDS011;66835;49.478;10.724;2023-02-28T11:48:20;1.42;;;0.80;;
77678;SDS011;66835;49.478;10.724;2023-02-28T11:53:39;1.33;;;1.00;;
77678;SDS011;66835;49.478;10.724;2023-02-28T11:58:43;0.88;;;0.73;;
77678;SDS011;66835;49.478;10.724;2023-02-28T12:01:15;1.30;;;0.77;;
77678;SDS011;66835;49.478;10.724;2023-02-28T12:03:58;1.35;;;0.90;;
77678;SDS011;66835;49.478;10.724;2023-02-28T12:06:31;1.17;;;0.82;;
77678;SDS011;66835;49.478;10.724;2023-02-28T12:09:02;1.65;;;0.90;;
77678;SDS011;66835;49.478;10.724;2023-02-28T12:11:39;1.42;;;0.93;;
77678;SDS011;66835;49.478;10.724;2023-02-28T12:14:18;1.05;;;0.73;;
77678;SDS011;66835;49.478;10.724;2023-02-28T12:16:53;1.23;;;0.70;;
77678;SDS011;66835;49.478;10.724;2023-02-28T12:19:23;0.85;;;0.70;;
77678;SDS011;66835;49.478;10.724;2023-02-28T12:21:55;0.93;;;0.77;;
77678;SDS011;66835;49.478;10.724;2023-02-28T12:24:39;1.05;;;0.77;;
77678;SDS011;66835;49.478;10.724;2023-02-28T12:27:16;1.27;;;0.77;;
77678;SDS011;66835;49.478;10.724;2023-02-28T12:29:45;0.90;;;0.80;;
77678;SDS011;66835;49.478;10.724;2023-02-28T12:32:13;1.13;;;0.82;;
77678;SDS011;66835;49.478;10.724;2023-02-28T12:34:42;1.20;;;0.88;;
77678;SDS011;66835;49.478;10.724;2023-02-28T12:37:10;0.70;;;0.70;;
77678;SDS011;66835;49.478;10.724;2023-02-28T12:39:40;0.85;;;0.70;;
77678;SDS011;66835;49.478;10.724;2023-02-28T12:42:10;0.60;;;0.60;;
77678;SDS011;66835;49.478;10.724;2023-02-28T12:44:40;1.38;;;0.80;;
77678;SDS011;66835;49.478;10.724;2023-02-28T12:47:12;0.98;;;0.80;;
77678;SDS011;66835;49.478;10.724;2023-02-28T12:49:41;0.70;;;0.70;;
77678;SDS011;66835;49.478;10.724;2023-02-28T12:52:10;0.73;;;0.70;;
77678;SDS011;66835;49.478;10.724;2023-02-28T12:54:38;0.73;;;0.70;;
77678;SDS011;66835;49.478;10.724;2023-02-28T12:57:09;1.45;;;0.82;;
77678;SDS011;66835;49.478;10.724;2023-02-28T12:59:39;1.17;;;0.80;;
77678;SDS011;66835;49.478;10.724;2023-02-28T13:02:14;0.70;;;0.70;;
77678;SDS011;66835;49.478;10.724;2023-02-28T13:04:56;0.88;;;0.70;;
77678;SDS011;66835;49.478;10.724;2023-02-28T13:07:58;0.60;;;0.60;;
77678;SDS011;66835;49.478;10.724;2023-02-28T13:10:39;0.90;;;0.60;;
77678;SDS011;66835;49.478;10.724;2023-02-28T13:13:10;0.80;;;0.68;;
77678;SDS011;66835;49.478;10.724;2023-02-28T13:15:39;0.65;;;0.52;;
77678;SDS011;66835;49.478;10.724;2023-02-28T13:18:20;0.68;;;0.63;;
77678;SDS011;66835;49.478;10.724;2023-02-28T13:20:53;0.85;;;0.70;;
77678;SDS011;66835;49.478;10.724;2023-02-28T13:26:24;0.90;;;0.70;;
77678;SDS011;66835;49.478;10.724;2023-02-28T13:29:28;0.85;;;0.77;;
77678;SDS011;66835;49.478;10.724;2023-02-28T13:37:42;1.02;;;0.70;;
77678;SDS011;66835;49.478;10.724;2023-02-28T13:40:28;1.33;;;0.80;;
77678;SDS011;66835;49.478;10.724;2023-02-28T13:43:01;0.70;;;0.60;;
77678;SDS011;66835;49.478;10.724;2023-02-28T13:45:27;0.60;;;0.52;;
77678;SDS011;66835;49.478;10.724;2023-02-28T13:47:55;0.68;;;0.52;;
77678;SDS011;66835;49.478;10.724;2023-02-28T13:50:29;0.68;;;0.60;;
77678;SDS011;66835;49.478;10.724;2023-02-28T13:56:01;0.70;;;0.70;;
77678;SDS011;66835;49.478;10.724;2023-02-28T13:58:43;0.95;;;0.70;;
77678;SDS011;66835;49.478;10.724;2023-02-28T14:01:16;0.82;;;0.80;;
77678;SDS011;66835;49.478;10.724;2023-02-28T14:04:03;0.77;;;0.70;;
77678;SDS011;66835;49.478;10.724;2023-02-28T14:06:50;0.60;;;0.60;;
77678;SDS011;66835;49.478;10.724;2023-02-28T14:09:18;0.98;;;0.77;;
77678;SDS011;66835;49.478;10.724;2023-02-28T14:11:48;0.65;;;0.60;;
77678;SDS011;66835;49.478;10.724;2023-02-28T14:17:14;0.73;;;0.70;;
77678;SDS011;66835;49.478;10.724;2023-02-28T14:19:41;1.13;;;0.80;;
77678;SDS011;66835;49.478;10.724;2023-02-28T14:22:12;0.73;;;0.70;;
77678;SDS011;66835;49.478;10.724;2023-02-28T14:24:55;0.80;;;0.60;;
77678;SDS011;66835;49.478;10.724;2023-02-28T14:27:32;0.80;;;0.80;;
77678;SDS011;66835;49.478;10.724;2023-02-28T14:30:03;0.90;;;0.70;;
77678;SDS011;66835;49.478;10.724;2023-02-28T14:32:40;1.05;;;0.70;;
77678;SDS011;66835;49.478;10.724;2023-02-28T14:35:12;1.55;;;0.90;;
77678;SDS011;66835;49.478;10.724;2023-02-28T14:38:02;0.90;;;0.73;;
77678;SDS011;66835;49.478;10.724;2023-02-28T14:40:31;1.10;;;0.80;;
77678;SDS011;66835;49.478;10.724;2023-02-28T14:42:58;1.02;;;0.70;;
77678;SDS011;66835;49.478;10.724;2023-02-28T14:45:25;1.10;;;0.75;;
77678;SDS011;66835;49.478;10.724;2023-02-28T14:47:52;1.10;;;0.75;;
77678;SDS011;66835;49.478;10.724;2023-02-28T14:50:18;0.80;;;0.70;;
77678;SDS011;66835;49.478;10.724;2023-02-28T14:52:44;0.88;;;0.75;;
77678;SDS011;66835;49.478;10.724;2023-02-28T14:55:12;0.88;;;0.70;;
77678;SDS011;66835;49.478;10.724;2023-02-28T14:57:40;0.82;;;0.70;;
77678;SDS011;66835;49.478;10.724;2023-02-28T15:00:11;0.65;;;0.60;;
77678;SDS011;66835;49.478;10.724;2023-02-28T15:02:39;0.75;;;0.70;;
77678;SDS011;66835;49.478;10.724;2023-02-28T15:05:18;1.02;;;0.73;;
77678;SDS011;66835;49.478;10.724;2023-02-28T15:07:49;0.88;;;0.65;;
77678;SDS011;66835;49.478;10.724;2023-02-28T15:10:27;0.73;;;0.70;;
77678;SDS011;66835;49.478;10.724;2023-02-28T15:12:53;0.93;;;0.73;;
77678;SDS011;66835;49.478;10.724;2023-02-28T15:15:21;0.98;;;0.77;;